Time;durP1;ratioP1;P1;durP2;ratioP2;P2;SDS_P1;SDS_P2;PMS_P1;PMS_P2;Temp;Humidity;BMP_temperature;BMP_pressure;BME280_temperature;BME280_humidity;BME280_pressure;Samples;Min_cycle;Max_cycle;Signal;HPM_P1;HPM_P2
2023/03/29 00:00:12;;;;;;;0.90;0.60;;;18.00;41.70;;;;;;6044673;23;20261;-82
2023/03/29 00:02:39;;;;;;;0.73;0.70;;;18.00;41.70;;;;;;6021161;23;20181;-82
2023/03/29 00:05:06;;;;;;;1.00;0.65;;;18.00;41.80;;;;;;6044895;23;20158;-82
2023/03/29 00:07:32;;;;;;;1.08;0.70;;;18.00;41.70;;;;;;6044540;23;20178;-81
2023/03/29 00:10:00;;;;;;;1.15;0.63;;;18.00;41.60;;;;;;5992127;23;20524;-82
2023/03/29 00:12:30;;;;;;;0.70;0.70;;;18.10;41.70;;;;;;5969465;23;20162;-82
2023/03/29 00:14:56;;;;;;;1.60;0.77;;;18.00;41.70;;;;;;5947626;23;20675;-82
2023/03/29 00:17:22;;;;;;;1.40;0.90;;;18.00;41.80;;;;;;5969930;23;20154;-82
2023/03/29 00:19:48;;;;;;;1.98;0.70;;;18.00;41.80;;;;;;5992061;23;20193;-81
2023/03/29 00:22:22;;;;;;;0.95;0.80;;;18.00;41.70;;;;;;6016417;23;20584;-81
2023/03/29 00:24:54;;;;;;;1.50;0.63;;;18.10;41.90;;;;;;5922952;23;20176;-81
2023/03/29 00:27:21;;;;;;;0.98;0.75;;;18.00;41.80;;;;;;5978292;23;20153;-81
2023/03/29 00:29:47;;;;;;;1.02;0.63;;;17.90;41.90;;;;;;6022480;23;20198;-81
2023/03/29 00:32:13;;;;;;;0.77;0.60;;;17.90;42.00;;;;;;5997208;23;20151;-81
2023/03/29 00:34:41;;;;;;;0.60;0.60;;;18.00;41.90;;;;;;6021029;23;20221;-81
2023/03/29 00:37:07;;;;;;;0.75;0.50;;;18.00;42.00;;;;;;5998808;23;20146;-81
2023/03/29 00:39:40;;;;;;;0.85;0.70;;;18.00;41.90;;;;;;5997944;23;20177;-82
2023/03/29 00:42:11;;;;;;;1.10;0.60;;;18.00;42.00;;;;;;5998302;23;20599;-81
2023/03/29 00:45:06;;;;;;;0.82;0.63;;;18.00;42.70;;;;;;6045626;23;20594;-81
2023/03/29 00:47:41;;;;;;;1.77;0.63;;;17.90;41.90;;;;;;6021507;23;20142;-82
2023/03/29 00:50:15;;;;;;;0.60;0.60;;;17.90;42.00;;;;;;6020924;23;20161;-82
2023/03/29 00:52:43;;;;;;;1.27;0.70;;;17.90;42.10;;;;;;6022950;23;20150;-81
2023/03/29 00:55:13;;;;;;;1.15;0.70;;;18.00;42.10;;;;;;6023452;23;20142;-82
2023/03/29 00:57:40;;;;;;;0.82;0.68;;;17.90;42.10;;;;;;6023558;23;20201;-81
2023/03/29 01:00:09;;;;;;;0.95;0.60;;;18.00;42.10;;;;;;6023356;23;20253;-81
2023/03/29 01:02:38;;;;;;;1.48;0.75;;;18.00;42.10;;;;;;6024569;23;20155;-82
2023/03/29 01:05:09;;;;;;;1.55;0.80;;;18.00;42.20;;;;;;5999374;23;20293;-82
2023/03/29 01:07:52;;;;;;;0.90;0.55;;;17.90;42.10;;;;;;6047736;23;20140;-82
2023/03/29 01:10:22;;;;;;;0.60;0.60;;;17.90;42.20;;;;;;6002015;23;20154;-81
2023/03/29 01:12:52;;;;;;;1.42;0.68;;;17.90;42.00;;;;;;6049574;23;20308;-81
2023/03/29 01:15:21;;;;;;;0.75;0.57;;;18.00;42.20;;;;;;6023825;23;20150;-81
2023/03/29 01:17:54;;;;;;;0.60;0.60;;;17.90;42.20;;;;;;6048072;23;20567;-82
2023/03/29 01:20:26;;;;;;;0.60;0.55;;;17.90;42.20;;;;;;6022786;23;20185;-82
2023/03/29 01:23:12;;;;;;;0.70;0.50;;;17.90;42.20;;;;;;6023703;23;20206;-81
2023/03/29 01:26:00;;;;;;;0.65;0.50;;;17.90;42.20;;;;;;6024321;23;20158;-82
2023/03/29 01:28:28;;;;;;;1.05;0.60;;;18.00;42.40;;;;;;6033705;23;20220;-81
2023/03/29 01:31:18;;;;;;;0.82;0.70;;;17.90;42.20;;;;;;6076528;23;20600;-82
2023/03/29 01:33:47;;;;;;;1.13;0.70;;;18.00;42.30;;;;;;6051502;23;20158;-81
2023/03/29 01:36:25;;;;;;;0.88;0.60;;;17.90;42.30;;;;;;6051803;23;20158;-81
2023/03/29 01:38:56;;;;;;;2.10;0.70;;;17.90;42.30;;;;;;6051648;23;20165;-81
2023/03/29 01:41:33;;;;;;;0.95;0.55;;;17.90;42.40;;;;;;6052317;23;20236;-81
2023/03/29 01:44:14;;;;;;;0.73;0.57;;;17.90;42.30;;;;;;6075062;23;20185;-81
2023/03/29 01:46:45;;;;;;;1.52;0.70;;;17.90;42.30;;;;;;6027970;23;20166;-81
2023/03/29 01:49:28;;;;;;;0.65;0.65;;;17.90;42.40;;;;;;6074700;23;20141;-81
2023/03/29 01:52:05;;;;;;;1.00;0.70;;;17.90;42.30;;;;;;6075057;23;20153;-81
2023/03/29 01:54:33;;;;;;;0.70;0.70;;;17.90;42.40;;;;;;6050575;23;20157;-81
2023/03/29 01:56:59;;;;;;;0.65;0.65;;;17.90;42.40;;;;;;6051694;23;20160;-81
2023/03/29 01:59:32;;;;;;;1.52;0.73;;;17.90;42.40;;;;;;6051421;23;20177;-81
2023/03/29 02:02:04;;;;;;;0.82;0.60;;;17.90;42.50;;;;;;6074373;23;20363;-81
2023/03/29 02:04:37;;;;;;;1.00;0.75;;;17.90;42.50;;;;;;6050451;23;20153;-81
2023/03/29 02:07:07;;;;;;;1.27;0.70;;;17.80;42.50;;;;;;6050523;23;20177;-81
2023/03/29 02:09:38;;;;;;;1.77;0.65;;;17.80;42.50;;;;;;6049605;23;20165;-81
2023/03/29 02:12:04;;;;;;;1.13;0.70;;;17.90;42.60;;;;;;6050679;23;20158;-81
2023/03/29 02:14:30;;;;;;;0.95;0.80;;;17.80;42.50;;;;;;6049571;23;20501;-81
2023/03/29 02:17:18;;;;;;;1.35;0.60;;;17.90;42.60;;;;;;6048897;23;20157;-81
2023/03/29 02:19:48;;;;;;;0.60;0.60;;;17.90;43.30;;;;;;6049496;23;20546;-81
2023/03/29 02:22:15;;;;;;;0.80;0.68;;;17.90;42.60;;;;;;6073668;23;20474;-81
2023/03/29 02:24:41;;;;;;;0.95;0.70;;;17.80;42.60;;;;;;6049330;23;20485;-81
2023/03/29 02:27:07;;;;;;;1.20;0.60;;;17.80;42.60;;;;;;6026580;23;20594;-81
2023/03/29 02:29:37;;;;;;;0.63;0.52;;;17.80;42.50;;;;;;6048245;23;20201;-81
2023/03/29 02:32:15;;;;;;;1.02;0.70;;;17.80;42.60;;;;;;6001894;23;20648;-83
2023/03/29 02:34:51;;;;;;;1.67;0.80;;;17.80;42.70;;;;;;6049633;23;20165;-81
2023/03/29 02:37:18;;;;;;;0.70;0.70;;;17.80;42.60;;;;;;6049019;23;20220;-81
2023/03/29 02:39:49;;;;;;;0.70;0.70;;;17.80;42.60;;;;;;6049316;23;20549;-81
2023/03/29 02:42:19;;;;;;;0.98;0.73;;;17.80;42.70;;;;;;6025667;23;20153;-81
2023/03/29 02:44:45;;;;;;;1.00;0.70;;;17.80;42.60;;;;;;6048342;23;20279;-81
2023/03/29 02:47:15;;;;;;;0.90;0.70;;;17.80;42.80;;;;;;6049553;23;20145;-81
2023/03/29 02:49:45;;;;;;;1.13;0.75;;;17.80;42.80;;;;;;6049259;23;20144;-81
2023/03/29 02:52:18;;;;;;;1.45;0.68;;;17.80;42.70;;;;;;5955904;23;20221;-81
2023/03/29 02:54:45;;;;;;;0.68;0.55;;;17.80;42.90;;;;;;6002090;23;20165;-81
2023/03/29 02:57:12;;;;;;;1.13;0.70;;;17.80;42.90;;;;;;6036043;23;20169;-81
2023/03/29 02:59:43;;;;;;;0.57;0.50;;;17.80;42.80;;;;;;6050660;23;20173;-81
2023/03/29 03:02:10;;;;;;;0.65;0.60;;;17.80;42.90;;;;;;6050041;23;20161;-81
2023/03/29 03:04:37;;;;;;;0.60;0.60;;;17.80;42.80;;;;;;6050441;23;20181;-81
2023/03/29 03:07:08;;;;;;;0.73;0.60;;;17.80;42.60;;;;;;6049889;23;20203;-82
2023/03/29 03:09:38;;;;;;;1.08;0.70;;;17.80;42.70;;;;;;6025983;23;20593;-82
2023/03/29 03:12:05;;;;;;;0.73;0.63;;;17.80;42.80;;;;;;5997085;23;20633;-82
2023/03/29 03:14:34;;;;;;;1.38;0.50;;;17.80;42.70;;;;;;5997177;23;20196;-81
2023/03/29 03:17:04;;;;;;;0.68;0.68;;;17.90;43.00;;;;;;5973749;23;20154;-82
2023/03/29 03:19:30;;;;;;;0.52;0.52;;;17.80;42.80;;;;;;5973413;23;20231;-81
2023/03/29 03:21:56;;;;;;;1.08;0.70;;;17.80;42.80;;;;;;6020680;23;20641;-82
2023/03/29 03:24:28;;;;;;;0.65;0.60;;;17.80;42.90;;;;;;6020277;23;20165;-81
2023/03/29 03:26:56;;;;;;;0.68;0.50;;;17.80;42.90;;;;;;5927231;23;20158;-81
2023/03/29 03:29:23;;;;;;;0.50;0.50;;;17.80;42.80;;;;;;6020148;23;20206;-81
2023/03/29 03:31:51;;;;;;;0.60;0.60;;;17.70;42.90;;;;;;5997468;23;20173;-81
2023/03/29 03:34:18;;;;;;;1.40;0.80;;;17.80;42.80;;;;;;6020730;23;20138;-81
2023/03/29 03:36:47;;;;;;;1.27;0.70;;;17.80;42.90;;;;;;5996900;23;20229;-81
2023/03/29 03:39:17;;;;;;;0.82;0.50;;;17.70;42.80;;;;;;5987939;24;20155;-81
2023/03/29 03:41:43;;;;;;;2.28;0.70;;;17.70;43.00;;;;;;5895430;24;20158;-81
2023/03/29 03:44:09;;;;;;;0.63;0.45;;;17.80;43.00;;;;;;5990506;23;20159;-81
2023/03/29 03:46:34;;;;;;;0.77;0.73;;;17.80;43.00;;;;;;5969020;23;20147;-81
2023/03/29 03:49:04;;;;;;;0.88;0.65;;;17.80;43.00;;;;;;5968828;23;20154;-81
2023/03/29 03:51:34;;;;;;;1.00;0.70;;;17.80;43.10;;;;;;5968116;23;20198;-81
2023/03/29 03:54:00;;;;;;;1.35;0.70;;;17.80;43.10;;;;;;5968182;23;20154;-81
2023/03/29 03:56:28;;;;;;;0.90;0.70;;;17.70;43.10;;;;;;5968598;23;20154;-81
2023/03/29 03:58:55;;;;;;;0.95;0.73;;;17.80;43.10;;;;;;5992774;23;20714;-81
2023/03/29 04:01:27;;;;;;;0.50;0.50;;;17.80;43.10;;;;;;5969042;23;20233;-81
2023/03/29 04:03:53;;;;;;;0.73;0.63;;;17.70;43.10;;;;;;5968189;23;20214;-81
2023/03/29 04:06:24;;;;;;;0.98;0.60;;;17.80;43.10;;;;;;5969690;23;20147;-81
2023/03/29 04:08:50;;;;;;;0.98;0.80;;;17.70;43.20;;;;;;5945784;23;20159;-81
2023/03/29 04:11:21;;;;;;;0.70;0.70;;;17.70;43.10;;;;;;5968148;23;20647;-81
2023/03/29 04:13:47;;;;;;;0.77;0.60;;;17.70;43.10;;;;;;5968526;23;20210;-81
2023/03/29 04:16:13;;;;;;;0.80;0.65;;;17.70;43.10;;;;;;5994569;23;20161;-81
2023/03/29 04:18:42;;;;;;;0.52;0.52;;;17.70;43.10;;;;;;6049742;23;20224;-81
2023/03/29 04:21:08;;;;;;;0.95;0.60;;;17.70;43.10;;;;;;6026177;23;20244;-80
2023/03/29 04:23:35;;;;;;;0.65;0.63;;;17.70;43.10;;;;;;6049889;23;20141;-81
2023/03/29 04:26:01;;;;;;;0.75;0.60;;;17.70;43.30;;;;;;6001777;23;20173;-81
2023/03/29 04:28:29;;;;;;;2.30;0.70;;;17.70;43.10;;;;;;6073938;23;20227;-81
2023/03/29 04:30:55;;;;;;;1.00;0.80;;;17.70;43.20;;;;;;6051938;23;20161;-81
2023/03/29 04:33:31;;;;;;;0.95;0.73;;;17.70;43.30;;;;;;6075849;23;20181;-81
2023/03/29 04:36:00;;;;;;;0.77;0.60;;;17.70;43.20;;;;;;6027036;23;20153;-82
2023/03/29 04:38:34;;;;;;;1.30;0.73;;;17.70;43.10;;;;;;6075922;23;20157;-81
2023/03/29 04:41:03;;;;;;;0.63;0.50;;;17.70;43.20;;;;;;6075920;23;20192;-81
2023/03/29 04:43:33;;;;;;;1.02;0.70;;;17.70;43.20;;;;;;6075921;23;20129;-81
2023/03/29 04:46:06;;;;;;;1.17;0.63;;;17.70;43.20;;;;;;6050879;23;20157;-82
2023/03/29 04:48:33;;;;;;;0.80;0.80;;;17.70;43.20;;;;;;6051936;23;20232;-81
2023/03/29 04:51:09;;;;;;;0.82;0.70;;;17.70;43.20;;;;;;6077617;23;20216;-81
2023/03/29 04:53:42;;;;;;;0.60;0.60;;;17.70;43.30;;;;;;6053535;23;20594;-81
2023/03/29 04:56:13;;;;;;;0.90;0.68;;;17.70;43.20;;;;;;6054664;23;20157;-82
2023/03/29 04:58:52;;;;;;;1.58;0.60;;;17.70;43.30;;;;;;6032981;23;20610;-81
2023/03/29 05:01:22;;;;;;;0.90;0.70;;;17.70;43.20;;;;;;6033239;23;20203;-81
2023/03/29 05:03:52;;;;;;;0.90;0.60;;;17.70;43.20;;;;;;6057423;23;20169;-80
2023/03/29 05:06:21;;;;;;;0.70;0.60;;;17.70;43.30;;;;;;6034279;23;20240;-81
2023/03/29 05:08:51;;;;;;;0.90;0.70;;;17.70;43.20;;;;;;6083062;23;20133;-81
2023/03/29 05:11:24;;;;;;;0.73;0.73;;;17.70;43.20;;;;;;6083288;23;20153;-80
2023/03/29 05:13:56;;;;;;;0.68;0.60;;;17.70;43.20;;;;;;6059351;23;20589;-80
2023/03/29 05:16:23;;;;;;;0.90;0.60;;;17.70;43.10;;;;;;6081147;23;20176;-79
2023/03/29 05:18:48;;;;;;;0.63;0.55;;;17.70;43.10;;;;;;6082548;23;20133;-80
2023/03/29 05:21:19;;;;;;;0.98;0.77;;;17.80;43.00;;;;;;6082458;23;20169;-81
2023/03/29 05:23:45;;;;;;;0.90;0.70;;;17.80;43.10;;;;;;6057627;23;20177;-81
2023/03/29 05:26:16;;;;;;;0.88;0.73;;;17.70;43.00;;;;;;6083346;23;20156;-80
2023/03/29 05:28:41;;;;;;;0.70;0.70;;;17.70;43.10;;;;;;6043642;23;20221;-80
2023/03/29 05:31:09;;;;;;;0.80;0.77;;;17.70;43.10;;;;;;6053416;23;20154;-81
2023/03/29 05:33:47;;;;;;;0.70;0.70;;;17.70;43.20;;;;;;6030141;23;20153;-81
2023/03/29 05:36:15;;;;;;;0.77;0.60;;;17.70;43.30;;;;;;6029150;23;20155;-81
2023/03/29 05:38:46;;;;;;;0.50;0.50;;;17.70;43.30;;;;;;6045550;23;20157;-82
2023/03/29 05:41:14;;;;;;;0.63;0.60;;;17.70;43.10;;;;;;5998792;23;20517;-82
2023/03/29 05:43:49;;;;;;;1.25;0.75;;;17.80;43.10;;;;;;6023585;23;20169;-81
2023/03/29 05:46:19;;;;;;;1.00;0.77;;;17.80;43.20;;;;;;6000523;23;20154;-81
2023/03/29 05:48:46;;;;;;;0.68;0.50;;;17.70;43.10;;;;;;6023232;23;20154;-82
2023/03/29 05:51:12;;;;;;;0.70;0.70;;;17.80;43.30;;;;;;6028981;23;20138;-83
2023/03/29 05:53:37;;;;;;;1.50;0.60;;;17.70;43.20;;;;;;6004527;23;20172;-82
2023/03/29 05:56:03;;;;;;;0.85;0.60;;;17.70;43.20;;;;;;6004405;23;20154;-84
2023/03/29 05:58:31;;;;;;;1.00;0.68;;;17.70;43.30;;;;;;6004990;23;20162;-80
2023/03/29 06:01:03;;;;;;;0.65;0.65;;;17.80;43.20;;;;;;5980643;23;20218;-80
2023/03/29 06:03:33;;;;;;;0.80;0.70;;;17.80;43.10;;;;;;5920560;24;20160;-81
2023/03/29 06:06:07;;;;;;;1.27;0.77;;;17.80;42.90;;;;;;5965034;24;20168;-82
2023/03/29 06:09:21;;;;;;;1.00;0.90;;;17.80;43.10;;;;;;5964951;24;20190;-80
2023/03/29 06:11:51;;;;;;;0.80;0.80;;;17.80;43.20;;;;;;5860681;24;20255;-80
2023/03/29 06:14:19;;;;;;;0.98;0.82;;;17.80;43.90;;;;;;5850605;24;20173;-83
2023/03/29 06:16:48;;;;;;;0.80;0.80;;;17.80;43.30;;;;;;5851048;24;20166;-84
2023/03/29 06:19:21;;;;;;;0.95;0.70;;;17.80;43.80;;;;;;5851257;24;20162;-83
2023/03/29 06:21:59;;;;;;;0.90;0.60;;;17.90;43.70;;;;;;5845934;24;20234;-83
2023/03/29 06:24:25;;;;;;;0.77;0.70;;;17.80;43.30;;;;;;5823617;24;20162;-83
2023/03/29 06:26:55;;;;;;;1.38;0.70;;;17.90;43.40;;;;;;5845847;24;20222;-84
2023/03/29 06:29:24;;;;;;;1.48;0.63;;;17.90;43.30;;;;;;5867491;24;20205;-84
2023/03/29 06:32:00;;;;;;;0.73;0.60;;;17.90;43.30;;;;;;5829071;24;20169;-83
2023/03/29 06:34:31;;;;;;;0.52;0.52;;;17.90;43.30;;;;;;5849991;24;20158;-84
2023/03/29 06:36:57;;;;;;;1.83;0.70;;;17.90;43.20;;;;;;5850726;24;20316;-84
2023/03/29 06:39:26;;;;;;;0.70;0.70;;;17.90;43.60;;;;;;5872734;24;20178;-83
2023/03/29 06:42:08;;;;;;;0.95;0.70;;;17.90;43.10;;;;;;5848166;24;20170;-83
2023/03/29 06:44:36;;;;;;;1.00;0.80;;;18.00;43.20;;;;;;5867449;24;20220;-84
2023/03/29 06:47:04;;;;;;;1.13;0.70;;;18.10;42.90;;;;;;5823977;24;20166;-84
2023/03/29 06:50:00;;;;;;;1.10;0.60;;;18.10;42.80;;;;;;5928356;24;20478;-83
2023/03/29 06:52:41;;;;;;;1.85;0.80;;;18.10;42.90;;;;;;5960754;23;20158;-84
2023/03/29 06:55:46;;;;;;;4.20;0.70;;;18.10;42.70;;;;;;5964487;24;20215;-84
2023/03/29 06:58:09;;;;;;;1.27;0.90;;;18.20;42.40;;;;;;5965068;24;20176;-83
2023/03/29 07:04:22;;;;;;;1.90;0.60;;;18.30;42.30;;;;;;5986597;24;20138;-85
2023/03/29 07:07:36;;;;;;;;;;;;;;;;;;;;;
2023/03/29 07:10:08;;;;;;;0.77;0.60;;;18.20;42.60;;;;;;5823154;24;20258;-82
2023/03/29 07:12:54;;;;;;;2.38;0.80;;;18.20;42.60;;;;;;5801767;24;20190;-84
2023/03/29 07:15:27;;;;;;;0.80;0.60;;;18.20;42.60;;;;;;5799468;24;20238;-84
2023/03/29 07:18:09;;;;;;;0.50;0.50;;;18.20;42.70;;;;;;5819903;24;20164;-83
2023/03/29 07:20:51;;;;;;;1.40;0.60;;;18.20;42.70;;;;;;5805117;24;20198;-83
2023/03/29 07:23:23;;;;;;;0.68;0.68;;;18.20;42.80;;;;;;5826257;24;20229;-83
2023/03/29 07:26:06;;;;;;;2.03;0.60;;;18.20;43.00;;;;;;5798367;24;20275;-83
2023/03/29 07:28:59;;;;;;;0.60;0.60;;;18.20;42.90;;;;;;5819463;24;20191;-84
2023/03/29 07:31:43;;;;;;;2.63;0.70;;;18.20;42.80;;;;;;5794190;24;20172;-84
2023/03/29 07:34:16;;;;;;;0.95;0.60;;;18.30;42.80;;;;;;5792822;24;20160;-83
2023/03/29 07:36:47;;;;;;;1.80;0.80;;;18.30;42.70;;;;;;5811771;24;20192;-83
2023/03/29 07:40:17;;;;;;;0.82;0.70;;;18.30;42.50;;;;;;5815577;24;20283;-83
2023/03/29 07:42:20;;;;;;;1.17;0.70;;;18.30;42.40;;;;;;5825046;24;20155;-83
2023/03/29 07:45:16;;;;;;;1.73;0.75;;;18.40;42.10;;;;;;5842771;24;20570;-84
2023/03/29 07:47:59;;;;;;;2.78;0.63;;;18.40;42.10;;;;;;5821842;24;20191;-83
2023/03/29 07:51:11;;;;;;;1.70;0.63;;;18.50;41.90;;;;;;5843740;24;20167;-83
2023/03/29 07:53:59;;;;;;;1.55;0.70;;;18.50;41.80;;;;;;5826950;24;20241;-86
2023/03/29 07:56:49;;;;;;;0.80;0.60;;;18.50;41.80;;;;;;5859058;24;20163;-83
2023/03/29 07:59:26;;;;;;;0.60;0.50;;;18.50;42.20;;;;;;5845095;24;20227;-82
2023/03/29 08:01:58;;;;;;;0.50;0.50;;;18.50;42.10;;;;;;5848323;24;20162;-83
2023/03/29 08:04:34;;;;;;;1.58;0.60;;;18.50;41.90;;;;;;5818112;24;20523;-83
2023/03/29 08:07:05;;;;;;;1.10;0.80;;;18.50;42.10;;;;;;5878454;24;20161;-83
2023/03/29 08:09:37;;;;;;;1.30;0.60;;;18.50;42.60;;;;;;5856341;24;20259;-82
2023/03/29 08:12:13;;;;;;;2.55;0.60;;;18.50;42.20;;;;;;5879153;24;20165;-84
2023/03/29 08:14:43;;;;;;;1.67;0.57;;;18.50;42.00;;;;;;5858576;24;20176;-83
2023/03/29 08:17:54;;;;;;;0.50;0.50;;;18.60;42.20;;;;;;5856817;24;20165;-84
2023/03/29 08:20:41;;;;;;;0.82;0.60;;;18.50;42.30;;;;;;5880088;24;20475;-82
2023/03/29 08:23:17;;;;;;;0.77;0.50;;;18.50;42.30;;;;;;5912822;24;20221;-83
2023/03/29 08:25:45;;;;;;;1.85;0.60;;;18.50;42.60;;;;;;5889114;24;20194;-84
2023/03/29 08:28:13;;;;;;;0.95;0.50;;;18.50;42.40;;;;;;5936767;23;20553;-84
2023/03/29 08:30:45;;;;;;;0.75;0.50;;;18.40;42.20;;;;;;5962499;23;20171;-84
2023/03/29 08:33:19;;;;;;;2.35;0.50;;;18.50;42.60;;;;;;5989939;23;20200;-83
2023/03/29 08:36:01;;;;;;;1.65;0.57;;;18.50;42.00;;;;;;5966359;23;20299;-84
2023/03/29 08:38:29;;;;;;;1.90;0.63;;;18.60;41.80;;;;;;5941581;24;20238;-83
2023/03/29 08:40:57;;;;;;;0.57;0.57;;;18.50;42.30;;;;;;5938785;24;20270;-82
2023/03/29 08:43:40;;;;;;;0.63;0.50;;;18.50;41.90;;;;;;5933594;24;20157;-83
2023/03/29 08:46:41;;;;;;;2.00;0.60;;;18.60;41.50;;;;;;5900291;24;20158;-83
2023/03/29 08:49:28;;;;;;;2.58;0.80;;;18.60;42.00;;;;;;5831294;24;20237;-83
2023/03/29 08:52:51;;;;;;;6.13;0.73;;;18.60;42.30;;;;;;5845355;24;20154;-84
2023/03/29 08:55:54;;;;;;;7.45;1.00;;;18.60;42.30;;;;;;5827066;24;20216;-84
2023/03/29 08:58:43;;;;;;;4.35;0.80;;;18.60;42.80;;;;;;5797350;24;20235;-82
2023/03/29 09:02:11;;;;;;;;;;;;;;;;;;;;;
2023/03/29 09:07:42;;;;;;;13.15;1.45;;;18.70;41.80;;;;;;5688041;25;20253;-84
2023/03/29 09:10:41;;;;;;;15.00;1.40;;;18.70;42.50;;;;;;5712649;25;20163;-83
2023/03/29 09:13:31;;;;;;;12.10;1.55;;;18.70;42.20;;;;;;5716237;24;20166;-83
2023/03/29 09:20:23;;;;;;;13.52;1.40;;;18.70;43.10;;;;;;5686396;25;20164;-85
2023/03/29 09:51:28;;;;;;;15.73;1.65;;;18.60;42.50;;;;;;5821593;24;20178;-86
2023/03/29 09:53:59;;;;;;;15.23;1.10;;;18.60;42.60;;;;;;5808233;24;20158;-84
2023/03/29 09:56:25;;;;;;;6.13;1.00;;;18.60;42.60;;;;;;5925714;24;20783;-84
2023/03/29 09:58:54;;;;;;;4.13;0.70;;;18.60;42.60;;;;;;5955968;24;20136;-83
2023/03/29 10:01:24;;;;;;;5.32;1.05;;;18.60;42.30;;;;;;5957693;23;20210;-84
2023/03/29 10:04:10;;;;;;;9.13;1.27;;;18.80;42.10;;;;;;6042883;23;20193;-84
2023/03/29 10:06:56;;;;;;;11.57;0.85;;;18.70;42.80;;;;;;5971893;23;20158;-83
2023/03/29 10:09:49;;;;;;;9.25;1.05;;;18.80;42.00;;;;;;6018170;23;20151;-84
2023/03/29 10:12:22;;;;;;;9.73;1.00;;;18.80;42.00;;;;;;5914260;24;20156;-84
2023/03/29 10:15:08;;;;;;;9.55;0.88;;;18.80;41.90;;;;;;5889561;24;20187;-83
2023/03/29 10:17:58;;;;;;;4.95;1.08;;;18.80;41.90;;;;;;5952053;24;20624;-84
2023/03/29 10:20:44;;;;;;;11.18;1.02;;;18.80;41.90;;;;;;5907196;24;20188;-83
2023/03/29 10:23:18;;;;;;;6.10;0.85;;;18.70;42.10;;;;;;5930460;24;20167;-84
2023/03/29 10:26:06;;;;;;;8.50;1.02;;;18.70;42.30;;;;;;5908237;24;20509;-83
2023/03/29 10:28:59;;;;;;;7.32;0.70;;;18.80;42.30;;;;;;5934020;24;20232;-83
2023/03/29 10:31:42;;;;;;;4.60;0.70;;;18.70;42.10;;;;;;5915088;24;20173;-83
2023/03/29 10:34:30;;;;;;;6.15;0.75;;;18.70;42.40;;;;;;5912841;24;20160;-82
2023/03/29 10:37:18;;;;;;;10.65;1.13;;;18.60;42.50;;;;;;5916830;24;20156;-85
2023/03/29 10:39:44;;;;;;;13.18;1.38;;;18.60;42.30;;;;;;5927899;24;20522;-84
2023/03/29 10:42:12;;;;;;;19.67;1.50;;;18.60;42.30;;;;;;5928487;24;20148;-84
2023/03/29 10:44:38;;;;;;;28.52;2.55;;;18.60;42.40;;;;;;5930931;24;20665;-83
2023/03/29 10:47:18;;;;;;;26.77;2.33;;;18.60;42.60;;;;;;5947664;24;20178;-83
2023/03/29 10:49:49;;;;;;;32.72;3.08;;;18.60;42.40;;;;;;5997042;23;20196;-83
2023/03/29 10:52:16;;;;;;;34.47;2.38;;;18.60;42.60;;;;;;6071538;23;20148;-84
2023/03/29 10:54:43;;;;;;;31.13;2.58;;;18.60;42.40;;;;;;6022353;23;20581;-83
2023/03/29 10:57:11;;;;;;;24.55;1.58;;;18.60;42.60;;;;;;6046506;23;20489;-83
2023/03/29 11:00:12;;;;;;;23.65;1.95;;;18.70;41.90;;;;;;6046440;23;20181;-83
2023/03/29 11:03:06;;;;;;;18.95;1.52;;;18.70;41.90;;;;;;6007559;23;20233;-83
2023/03/29 11:05:53;;;;;;;18.10;1.90;;;18.60;42.30;;;;;;6001068;23;20153;-82
2023/03/29 11:08:31;;;;;;;15.45;1.58;;;18.70;41.80;;;;;;6046047;23;20133;-82
2023/03/29 11:11:12;;;;;;;16.92;1.77;;;18.70;41.90;;;;;;6071683;23;20216;-81
2023/03/29 11:13:53;;;;;;;10.02;1.58;;;18.80;41.60;;;;;;6071308;23;20570;-84
2023/03/29 11:16:32;;;;;;;11.85;1.13;;;18.90;41.80;;;;;;6044993;23;20147;-82
2023/03/29 11:19:22;;;;;;;11.38;1.10;;;18.80;41.80;;;;;;6069931;23;20216;-82
2023/03/29 11:22:00;;;;;;;10.10;1.17;;;18.80;41.80;;;;;;5982113;23;20236;-81
2023/03/29 11:25:00;;;;;;;15.60;1.10;;;18.70;42.10;;;;;;6021157;23;20146;-84
2023/03/29 11:28:06;;;;;;;6.85;0.77;;;18.70;41.80;;;;;;6005717;23;20161;-82
2023/03/29 11:30:58;;;;;;;9.25;1.25;;;18.80;41.70;;;;;;5939806;23;20153;-85
2023/03/29 11:33:47;;;;;;;9.15;0.77;;;18.70;42.00;;;;;;6022011;23;20526;-84
2023/03/29 11:36:40;;;;;;;8.18;0.90;;;18.70;41.90;;;;;;6045298;23;20570;-85
2023/03/29 11:39:32;;;;;;;6.20;1.15;;;18.70;42.00;;;;;;6000998;23;20164;-82
2023/03/29 11:42:16;;;;;;;8.38;0.80;;;18.70;41.90;;;;;;6007551;23;20165;-84
2023/03/29 11:44:47;;;;;;;6.68;1.00;;;18.70;41.70;;;;;;5976054;23;20160;-83
2023/03/29 11:47:16;;;;;;;10.63;1.17;;;18.60;42.40;;;;;;5998675;23;20153;-82
2023/03/29 11:49:45;;;;;;;10.75;0.95;;;18.60;42.00;;;;;;6068077;23;20216;-82
2023/03/29 11:52:32;;;;;;;15.80;1.13;;;18.60;42.00;;;;;;6021816;23;20158;-82
2023/03/29 11:55:22;;;;;;;6.93;1.10;;;18.60;42.10;;;;;;6074577;23;20188;-84
2023/03/29 11:57:56;;;;;;;5.82;0.70;;;18.60;42.20;;;;;;6009380;23;20245;-83
2023/03/29 12:00:28;;;;;;;6.70;0.90;;;18.60;41.90;;;;;;6021133;23;20184;-85
2023/03/29 12:03:21;;;;;;;5.03;0.80;;;18.60;42.10;;;;;;5996730;23;20157;-82
2023/03/29 12:05:52;;;;;;;5.18;0.88;;;18.60;41.80;;;;;;6003493;23;20160;-84
2023/03/29 12:08:32;;;;;;;5.32;0.73;;;18.60;42.10;;;;;;5996449;23;20184;-83
2023/03/29 12:11:12;;;;;;;2.92;0.60;;;18.60;41.90;;;;;;6067249;23;20130;-84
2023/03/29 12:14:17;;;;;;;;;;;;;;;;;;;;;
2023/03/29 12:16:47;;;;;;;3.03;0.57;;;18.60;42.10;;;;;;6008199;23;20236;-82
2023/03/29 12:19:18;;;;;;;2.40;0.60;;;18.70;42.00;;;;;;6073208;23;20138;-83
2023/03/29 12:22:06;;;;;;;2.13;0.70;;;18.70;42.10;;;;;;6023707;23;20149;-82
2023/03/29 12:24:32;;;;;;;3.13;0.60;;;18.70;41.80;;;;;;6026064;23;20150;-84
2023/03/29 12:27:24;;;;;;;6.05;0.60;;;18.70;41.90;;;;;;6077924;23;20209;-85
2023/03/29 12:30:22;;;;;;;3.50;0.65;;;18.70;41.90;;;;;;6012108;23;20209;-85
2023/03/29 12:33:06;;;;;;;8.95;0.77;;;18.70;42.20;;;;;;6057355;23;20162;-84
2023/03/29 12:35:41;;;;;;;2.97;0.60;;;18.80;41.90;;;;;;6060981;23;20149;-84
2023/03/29 12:38:29;;;;;;;2.95;0.40;;;18.70;42.00;;;;;;5994919;23;20159;-83
2023/03/29 12:40:56;;;;;;;3.88;0.50;;;18.70;42.00;;;;;;5983400;23;20199;-83
2023/03/29 12:43:30;;;;;;;1.00;0.40;;;18.70;41.90;;;;;;5978747;24;20235;-85
2023/03/29 12:46:12;;;;;;;3.13;0.50;;;18.70;42.00;;;;;;5979164;24;20159;-83
2023/03/29 12:48:42;;;;;;;0.77;0.45;;;18.70;42.00;;;;;;5952111;24;20190;-83
2023/03/29 12:51:11;;;;;;;3.78;0.47;;;18.80;41.90;;;;;;5956234;24;20203;-86
2023/03/29 12:53:42;;;;;;;2.78;0.47;;;18.80;41.60;;;;;;5911888;24;20160;-84
2023/03/29 12:56:12;;;;;;;2.92;0.57;;;18.80;41.50;;;;;;5934593;24;20160;-82
2023/03/29 12:58:51;;;;;;;1.90;0.40;;;18.80;41.50;;;;;;5908921;24;20164;-84
2023/03/29 13:01:35;;;;;;;2.25;0.60;;;18.80;41.70;;;;;;5930861;24;20188;-84
2023/03/29 13:04:19;;;;;;;2.55;0.60;;;18.80;41.70;;;;;;5911991;24;20157;-84
2023/03/29 13:07:01;;;;;;;3.97;0.60;;;18.80;41.90;;;;;;5913502;24;20177;-85
2023/03/29 13:09:52;;;;;;;1.90;0.47;;;18.70;42.10;;;;;;5912107;24;20230;-84
2023/03/29 13:12:26;;;;;;;2.40;0.40;;;18.80;42.20;;;;;;5930069;24;20239;-85
2023/03/29 13:15:00;;;;;;;0.55;0.30;;;18.80;41.90;;;;;;5913671;24;20156;-83
2023/03/29 13:17:53;;;;;;;2.55;0.50;;;18.80;41.90;;;;;;5867868;24;20160;-86
2023/03/29 13:20:40;;;;;;;3.10;0.47;;;18.80;41.90;;;;;;5917201;24;20188;-83
2023/03/29 13:23:25;;;;;;;3.67;0.50;;;18.70;42.00;;;;;;5890847;24;20155;-84
2023/03/29 13:26:34;;;;;;;2.65;0.50;;;18.70;42.10;;;;;;5938874;24;20292;-84
2023/03/29 13:29:20;;;;;;;3.83;0.43;;;18.70;42.20;;;;;;5921839;24;20158;-85
2023/03/29 13:32:35;;;;;;;1.50;0.50;;;18.70;42.30;;;;;;5906880;24;20167;-83
2023/03/29 13:35:29;;;;;;;2.35;0.40;;;18.70;42.50;;;;;;5964598;24;20185;-85
2023/03/29 13:38:17;;;;;;;2.15;0.28;;;18.80;42.10;;;;;;5934144;24;20554;-85
2023/03/29 13:40:50;;;;;;;2.58;0.47;;;18.80;42.10;;;;;;5967080;24;20395;-84
2023/03/29 13:43:30;;;;;;;1.75;0.50;;;18.80;41.70;;;;;;5929703;24;20534;-85
2023/03/29 13:46:17;;;;;;;1.38;0.50;;;18.80;41.60;;;;;;5906268;24;20153;-86
2023/03/29 13:52:25;;;;;;;2.38;0.70;;;18.80;41.70;;;;;;5830972;24;20227;-83
2023/03/29 13:54:59;;;;;;;0.77;0.40;;;18.90;41.90;;;;;;5835166;24;20175;-86
2023/03/29 13:57:43;;;;;;;1.60;0.47;;;18.80;41.90;;;;;;5850533;24;20155;-84
2023/03/29 14:00:45;;;;;;;0.75;0.35;;;18.80;41.90;;;;;;5847472;24;20631;-85
2023/03/29 14:03:28;;;;;;;1.77;0.40;;;18.80;41.80;;;;;;5826450;24;20166;-86
2023/03/29 14:06:17;;;;;;;;;;;;;;;;;;;;;
2023/03/29 14:08:49;;;;;;;0.50;0.47;;;18.70;42.20;;;;;;5811018;24;20179;-85
2023/03/29 14:11:30;;;;;;;2.05;0.55;;;18.60;42.00;;;;;;5821576;24;20209;-86
2023/03/29 14:14:03;;;;;;;0.60;0.30;;;18.70;42.00;;;;;;5768758;24;20191;-85
2023/03/29 14:16:47;;;;;;;0.73;0.30;;;18.70;41.90;;;;;;5777714;24;20261;-86
2023/03/29 14:19:43;;;;;;;2.40;0.60;;;18.70;42.10;;;;;;5773793;24;20224;-86